createdAt,value
2023-01-29T00:02:09.892Z,86.05
2023-01-29T00:04:36.837Z,85.79
2023-01-29T00:07:03.986Z,86.38
2023-01-29T00:09:31.856Z,87.13
2023-01-29T00:11:58.532Z,86.19
2023-01-29T00:14:27.555Z,87.42
2023-01-29T00:16:54.634Z,87.75
2023-01-29T00:19:21.407Z,86.30
2023-01-29T00:21:47.939Z,86.93
2023-01-29T00:24:15.062Z,86.39
2023-01-29T00:26:43.461Z,85.29
2023-01-29T00:29:11.046Z,86.26
2023-01-29T00:31:38.822Z,86.23
2023-01-29T00:34:07.030Z,86.66
2023-01-29T00:36:34.271Z,86.83
2023-01-29T00:39:02.738Z,86.92
2023-01-29T00:41:51.167Z,86.82
2023-01-29T00:44:37.351Z,86.40
2023-01-29T00:47:05.378Z,86.49
2023-01-29T00:49:32.165Z,87.19
2023-01-29T00:52:17.979Z,88.14
2023-01-29T00:54:44.855Z,87.37
2023-01-29T00:57:11.497Z,87.53
2023-01-29T00:59:38.467Z,87.39
2023-01-29T01:02:23.966Z,87.82
2023-01-29T01:04:51.135Z,88.15
2023-01-29T01:07:17.595Z,87.40
2023-01-29T01:10:03.000Z,87.77
2023-01-29T01:12:30.669Z,89.47
2023-01-29T01:14:57.641Z,88.72
2023-01-29T01:17:24.574Z,89.06
2023-01-29T01:19:51.592Z,89.69
2023-01-29T01:22:18.737Z,89.39
2023-01-29T01:24:45.421Z,89.68
2023-01-29T01:27:12.784Z,90.64
2023-01-29T01:29:39.401Z,89.77
2023-01-29T01:32:06.586Z,87.48
2023-01-29T01:34:33.389Z,89.45
2023-01-29T01:37:01.286Z,89.29
2023-01-29T01:39:27.832Z,90.84
2023-01-29T01:41:54.953Z,88.33
2023-01-29T01:44:54.219Z,89.39
2023-01-29T01:47:26.458Z,89.51
2023-01-29T01:49:55.241Z,88.54
2023-01-29T01:52:21.904Z,87.92
2023-01-29T01:55:12.190Z,87.12
2023-01-29T01:58:06.488Z,89.52
2023-01-29T02:00:53.994Z,89.59
2023-01-29T02:04:09.254Z,89.04
2023-01-29T02:07:16.542Z,90.15
2023-01-29T02:10:12.855Z,89.75
2023-01-29T02:12:40.375Z,89.13
2023-01-29T02:15:07.793Z,89.14
2023-01-29T02:17:34.662Z,89.48
2023-01-29T02:20:10.563Z,89.30
2023-01-29T02:22:47.109Z,89.93
2023-01-29T02:25:41.183Z,90.59
2023-01-29T02:28:55.240Z,90.49
2023-01-29T02:31:28.265Z,89.57
2023-01-29T02:34:01.262Z,88.84
2023-01-29T02:36:41.489Z,88.32
2023-01-29T02:39:34.095Z,88.26
2023-01-29T02:42:41.218Z,90.23
2023-01-29T02:45:18.797Z,89.75
2023-01-29T02:48:01.073Z,89.22
2023-01-29T02:50:51.272Z,88.79
2023-01-29T02:53:42.731Z,89.30
2023-01-29T02:56:21.612Z,88.91
2023-01-29T02:58:54.671Z,89.21
2023-01-29T03:01:31.607Z,89.55
2023-01-29T03:04:06.829Z,90.80
2023-01-29T03:06:38.802Z,90.59
2023-01-29T03:09:13.292Z,90.84
2023-01-29T03:11:47.021Z,90.57
2023-01-29T03:14:19.249Z,90.38
2023-01-29T03:16:50.782Z,91.37
2023-01-29T03:19:38.760Z,92.48
2023-01-29T03:22:16.505Z,94.07
2023-01-29T03:25:15.877Z,94.71
2023-01-29T03:28:21.111Z,96.38
2023-01-29T03:31:13.671Z,97.00
2023-01-29T03:33:50.951Z,99.19
2023-01-29T03:36:23.163Z,99.21
2023-01-29T03:38:49.824Z,99.23
2023-01-29T03:41:31.704Z,99.62
2023-01-29T03:44:30.406Z,100.00
2023-01-29T03:47:13.822Z,100.00
2023-01-29T03:49:43.710Z,100.00
2023-01-29T03:52:24.731Z,100.00
2023-01-29T03:55:16.646Z,100.00
2023-01-29T03:58:03.553Z,100.00
2023-01-29T04:00:40.957Z,100.00
2023-01-29T04:03:23.052Z,100.00
2023-01-29T04:06:10.205Z,100.00
2023-01-29T04:09:00.093Z,100.00
2023-01-29T04:11:29.715Z,100.00
2023-01-29T04:13:57.829Z,100.00
2023-01-29T04:16:32.215Z,100.00
2023-01-29T04:19:12.561Z,100.00
2023-01-29T04:21:42.174Z,100.00
2023-01-29T04:24:11.776Z,100.00
2023-01-29T04:27:16.127Z,98.91
2023-01-29T04:30:02.372Z,98.89
2023-01-29T04:33:05.430Z,96.55
2023-01-29T04:35:36.681Z,96.85
2023-01-29T04:38:16.723Z,96.17
2023-01-29T04:41:06.546Z,96.42
2023-01-29T04:43:53.193Z,96.85
2023-01-29T04:46:51.080Z,96.87
2023-01-29T04:49:46.194Z,98.60
2023-01-29T04:52:20.152Z,99.24
2023-01-29T04:54:53.449Z,98.94
2023-01-29T04:57:31.471Z,98.67
2023-01-29T05:00:10.368Z,98.16
2023-01-29T05:02:41.583Z,98.02
2023-01-29T05:05:10.869Z,98.20
2023-01-29T05:07:39.060Z,98.06
2023-01-29T05:10:08.325Z,97.81
2023-01-29T05:12:36.943Z,97.86
2023-01-29T05:15:08.207Z,99.21
2023-01-29T05:17:35.066Z,100.00
2023-01-29T05:20:01.560Z,100.00
2023-01-29T05:22:29.459Z,100.00
2023-01-29T05:24:56.135Z,100.00
2023-01-29T05:27:51.265Z,100.00
2023-01-29T05:30:18.180Z,100.00
2023-01-29T05:32:45.054Z,100.00
2023-01-29T05:35:12.048Z,100.00
2023-01-29T05:37:38.890Z,100.00
2023-01-29T05:40:09.120Z,100.00
2023-01-29T05:42:35.665Z,100.00
2023-01-29T05:45:02.902Z,100.00
2023-01-29T05:47:29.668Z,100.00
2023-01-29T05:49:56.263Z,100.00
2023-01-29T05:52:22.958Z,100.00
2023-01-29T05:54:49.933Z,100.00
2023-01-29T05:57:16.368Z,100.00
2023-01-29T05:59:43.061Z,100.00
2023-01-29T06:02:09.864Z,100.00
2023-01-29T06:04:36.699Z,100.00
2023-01-29T06:07:04.833Z,100.00
2023-01-29T06:09:31.505Z,99.83
2023-01-29T06:11:58.052Z,100.00
2023-01-29T06:14:25.038Z,99.87
2023-01-29T06:16:51.501Z,99.54
2023-01-29T06:19:18.222Z,99.21
2023-01-29T06:21:45.171Z,99.97
2023-01-29T06:24:11.741Z,100.00
2023-01-29T06:26:38.716Z,100.00
2023-01-29T06:29:05.189Z,100.00
2023-01-29T06:31:38.866Z,100.00
2023-01-29T06:34:08.407Z,100.00
2023-01-29T06:36:35.231Z,100.00
2023-01-29T06:39:01.895Z,100.00
2023-01-29T06:41:29.032Z,100.00
2023-01-29T06:43:55.620Z,100.00
2023-01-29T06:46:22.522Z,100.00
2023-01-29T06:48:49.245Z,100.00
2023-01-29T06:51:15.955Z,100.00
2023-01-29T06:53:45.426Z,100.00
2023-01-29T06:56:13.017Z,100.00
2023-01-29T06:58:39.570Z,100.00
2023-01-29T07:01:15.521Z,100.00
2023-01-29T07:03:52.399Z,100.00
2023-01-29T07:06:19.529Z,100.00
2023-01-29T07:08:46.516Z,100.00
2023-01-29T07:11:13.155Z,100.00
2023-01-29T07:13:40.200Z,100.00
2023-01-29T07:16:07.847Z,100.00
2023-01-29T07:18:34.517Z,100.00
2023-01-29T07:21:05.713Z,100.00
2023-01-29T07:23:32.682Z,100.00
2023-01-29T07:26:03.716Z,100.00
2023-01-29T07:28:30.431Z,100.00
2023-01-29T07:31:00.741Z,100.00
2023-01-29T07:33:27.335Z,100.00
2023-01-29T07:35:54.633Z,100.00
2023-01-29T07:38:24.696Z,100.00
2023-01-29T07:40:55.026Z,100.00
2023-01-29T07:43:21.503Z,100.00
2023-01-29T07:45:48.247Z,100.00
2023-01-29T07:48:14.704Z,100.00
2023-01-29T07:50:41.649Z,100.00
2023-01-29T07:53:15.327Z,100.00
2023-01-29T07:55:45.563Z,100.00
2023-01-29T07:58:12.662Z,100.00
2023-01-29T08:00:39.588Z,100.00
2023-01-29T08:03:13.317Z,100.00
2023-01-29T08:05:40.113Z,100.00
2023-01-29T08:08:07.899Z,100.00
2023-01-29T08:10:36.573Z,100.00
2023-01-29T08:13:04.847Z,100.00
2023-01-29T08:15:32.378Z,100.00
2023-01-29T08:17:59.265Z,100.00
2023-01-29T08:20:26.144Z,100.00
2023-01-29T08:23:08.339Z,100.00
2023-01-29T08:25:36.001Z,100.00
2023-01-29T08:28:04.132Z,100.00
2023-01-29T08:30:33.409Z,99.02
2023-01-29T08:33:00.627Z,97.25
2023-01-29T08:35:27.773Z,97.02
2023-01-29T08:37:56.437Z,97.14
2023-01-29T08:40:23.963Z,96.08
2023-01-29T08:42:50.512Z,94.93
2023-01-29T08:45:17.254Z,93.70
2023-01-29T08:47:49.988Z,93.66
2023-01-29T08:50:17.821Z,92.87
2023-01-29T08:52:45.746Z,91.26
2023-01-29T08:55:15.387Z,87.93
2023-01-29T08:57:42.374Z,86.42
2023-01-29T09:00:10.834Z,85.13
2023-01-29T09:02:37.802Z,83.08
2023-01-29T09:05:05.499Z,83.13
2023-01-29T09:07:32.509Z,81.88
2023-01-29T09:09:58.967Z,80.86
2023-01-29T09:12:25.795Z,79.68
2023-01-29T09:14:52.494Z,81.10
2023-01-29T09:17:19.377Z,80.03
2023-01-29T09:19:46.093Z,78.47
2023-01-29T09:22:14.146Z,78.62
2023-01-29T09:24:41.169Z,79.30
2023-01-29T09:27:07.775Z,80.61
2023-01-29T09:29:35.944Z,81.68
2023-01-29T09:32:04.277Z,81.66
2023-01-29T09:34:30.885Z,80.16
2023-01-29T09:36:57.622Z,78.84
2023-01-29T09:39:24.087Z,77.78
2023-01-29T09:42:05.962Z,78.08
2023-01-29T09:44:51.731Z,81.61
2023-01-29T09:47:19.882Z,82.47
2023-01-29T09:49:55.664Z,81.03
2023-01-29T09:52:31.092Z,81.37
2023-01-29T09:55:09.930Z,81.63
2023-01-29T09:57:53.471Z,81.71
2023-01-29T10:00:38.530Z,81.40
2023-01-29T10:03:21.083Z,81.50
2023-01-29T10:05:55.464Z,83.55
2023-01-29T10:08:49.199Z,81.72
2023-01-29T10:11:46.307Z,83.20
2023-01-29T10:14:53.850Z,84.45
2023-01-29T10:17:39.550Z,86.31
2023-01-29T10:20:33.334Z,84.57
2023-01-29T10:23:31.918Z,83.94
2023-01-29T10:26:00.185Z,82.76
2023-01-29T10:28:33.974Z,81.33
2023-01-29T10:31:15.246Z,82.90
2023-01-29T10:34:01.550Z,83.00
2023-01-29T10:36:36.091Z,80.68
2023-01-29T10:39:03.346Z,81.63
2023-01-29T10:41:56.865Z,80.56
2023-01-29T10:44:53.559Z,80.63
2023-01-29T10:47:42.194Z,78.86
2023-01-29T10:50:33.663Z,79.12
2023-01-29T10:53:08.447Z,78.40
2023-01-29T10:55:52.853Z,78.84
2023-01-29T10:58:36.504Z,80.09
2023-01-29T11:01:03.499Z,79.12
2023-01-29T11:03:32.524Z,79.29
2023-01-29T11:06:20.683Z,78.33
2023-01-29T11:08:59.234Z,75.16
2023-01-29T11:11:33.776Z,75.07
2023-01-29T11:14:07.019Z,73.77
2023-01-29T11:16:42.974Z,72.39
2023-01-29T11:19:10.606Z,71.72
2023-01-29T11:21:59.903Z,72.07
2023-01-29T11:24:27.337Z,71.05
2023-01-29T11:26:57.705Z,71.35
2023-01-29T11:29:29.911Z,73.09
2023-01-29T11:32:04.110Z,72.78
2023-01-29T11:34:33.556Z,71.28
2023-01-29T11:37:05.779Z,72.03
2023-01-29T11:39:32.882Z,71.45
2023-01-29T11:42:04.581Z,71.25
2023-01-29T11:44:33.955Z,71.84
2023-01-29T11:47:12.865Z,70.55
2023-01-29T11:49:45.009Z,70.61
2023-01-29T11:52:13.868Z,71.09
2023-01-29T11:55:03.778Z,70.26
2023-01-29T11:57:35.583Z,69.99
2023-01-29T12:00:07.138Z,69.62
2023-01-29T12:02:41.854Z,71.35
2023-01-29T12:05:18.589Z,70.54
2023-01-29T12:07:48.932Z,68.76
2023-01-29T12:10:48.434Z,69.95
2023-01-29T12:13:21.254Z,70.08
2023-01-29T12:15:49.272Z,68.24
2023-01-29T12:18:38.091Z,66.81
2023-01-29T12:21:11.032Z,67.53
2023-01-29T12:24:15.704Z,67.65
2023-01-29T12:26:58.253Z,66.02
2023-01-29T12:29:43.008Z,66.76
2023-01-29T12:32:38.217Z,67.41
2023-01-29T12:35:23.019Z,67.38
2023-01-29T12:38:08.535Z,68.84
2023-01-29T12:40:43.115Z,67.86
2023-01-29T12:43:17.176Z,66.87
2023-01-29T12:45:48.052Z,67.02
2023-01-29T12:48:20.739Z,68.65
2023-01-29T12:50:50.137Z,65.63
2023-01-29T12:53:35.111Z,66.78
2023-01-29T12:56:11.113Z,66.32
2023-01-29T12:58:50.538Z,66.95
2023-01-29T13:01:27.243Z,64.20
2023-01-29T13:03:57.611Z,64.70
2023-01-29T13:06:31.748Z,63.80
2023-01-29T13:09:02.971Z,62.81
2023-01-29T13:11:37.493Z,62.43
2023-01-29T13:14:18.942Z,63.17
2023-01-29T13:16:49.702Z,64.34
2023-01-29T13:19:23.948Z,64.08
2023-01-29T13:21:52.459Z,63.73
2023-01-29T13:24:23.527Z,64.26
2023-01-29T13:26:50.865Z,63.00
2023-01-29T13:29:27.543Z,63.21
2023-01-29T13:32:00.632Z,63.61
2023-01-29T13:34:31.443Z,62.26
2023-01-29T13:37:01.919Z,65.57
2023-01-29T13:39:37.565Z,63.46
2023-01-29T13:42:18.995Z,64.43
2023-01-29T13:44:51.387Z,63.31
2023-01-29T13:47:27.155Z,63.22
2023-01-29T13:49:59.731Z,62.56
2023-01-29T13:52:36.292Z,64.94
2023-01-29T13:55:31.226Z,65.83
2023-01-29T13:58:02.835Z,65.60
2023-01-29T14:00:35.405Z,65.60
2023-01-29T14:03:05.157Z,65.80
2023-01-29T14:05:31.841Z,66.76
2023-01-29T14:08:28.089Z,67.26
2023-01-29T14:11:21.666Z,66.99
2023-01-29T14:13:49.989Z,67.35
2023-01-29T14:16:16.483Z,68.92
2023-01-29T14:18:58.093Z,68.89
2023-01-29T14:21:36.994Z,68.54
2023-01-29T14:24:17.032Z,68.98
2023-01-29T14:26:45.956Z,68.71
2023-01-29T14:29:14.524Z,67.54
2023-01-29T14:32:00.545Z,65.54
2023-01-29T14:34:33.025Z,64.01
2023-01-29T14:37:19.524Z,64.19
2023-01-29T14:39:52.432Z,62.69
2023-01-29T14:42:25.989Z,61.86
2023-01-29T14:44:55.519Z,63.79
2023-01-29T14:47:43.480Z,63.60
2023-01-29T14:50:33.256Z,62.66
2023-01-29T14:53:19.565Z,62.25
2023-01-29T14:56:01.177Z,60.58
2023-01-29T14:58:56.268Z,62.04
2023-01-29T15:01:34.456Z,60.60
2023-01-29T15:04:12.192Z,60.17
2023-01-29T15:06:46.541Z,59.81
2023-01-29T15:09:40.922Z,59.83
2023-01-29T15:12:33.302Z,59.10
2023-01-29T15:15:15.667Z,58.52
2023-01-29T15:18:03.483Z,60.40
2023-01-29T15:20:44.493Z,58.44
2023-01-29T15:23:34.071Z,58.79
2023-01-29T15:26:03.226Z,58.36
2023-01-29T15:28:34.531Z,59.34
2023-01-29T15:31:07.843Z,59.92
2023-01-29T15:33:38.741Z,59.65
2023-01-29T15:36:08.185Z,57.81
2023-01-29T15:38:35.798Z,58.83
2023-01-29T15:41:16.293Z,59.86
2023-01-29T15:43:56.657Z,60.69
2023-01-29T15:46:49.901Z,62.05
2023-01-29T15:49:31.964Z,63.80
2023-01-29T15:52:02.013Z,64.90
2023-01-29T15:54:31.989Z,66.11
2023-01-29T15:56:59.302Z,67.64
2023-01-29T15:59:30.656Z,68.06
2023-01-29T16:01:58.161Z,68.86
2023-01-29T16:04:28.944Z,69.54
2023-01-29T16:06:57.993Z,71.76
2023-01-29T16:09:27.411Z,71.69
2023-01-29T16:11:58.492Z,73.72
2023-01-29T16:14:26.679Z,75.41
2023-01-29T16:16:53.767Z,77.03
2023-01-29T16:19:20.233Z,76.57
2023-01-29T16:21:54.672Z,78.89
2023-01-29T16:24:23.310Z,79.90
2023-01-29T16:26:52.245Z,80.65
2023-01-29T16:29:22.455Z,82.19
2023-01-29T16:31:51.831Z,82.70
2023-01-29T16:34:29.007Z,84.07
2023-01-29T16:36:56.372Z,84.52
2023-01-29T16:39:25.499Z,85.59
2023-01-29T16:42:17.052Z,85.92
2023-01-29T16:45:06.503Z,86.10
2023-01-29T16:47:38.292Z,86.61
2023-01-29T16:50:36.050Z,86.44
2023-01-29T16:53:13.412Z,87.46
2023-01-29T16:55:45.464Z,88.01
2023-01-29T16:58:18.172Z,89.77
2023-01-29T17:01:07.951Z,88.75
2023-01-29T17:03:36.461Z,90.21
2023-01-29T17:06:19.131Z,90.71
2023-01-29T17:08:46.143Z,90.67
2023-01-29T17:11:22.766Z,91.78
2023-01-29T17:13:49.352Z,92.96
2023-01-29T17:16:25.954Z,93.67
2023-01-29T17:18:52.690Z,94.05
2023-01-29T17:21:19.132Z,95.90
2023-01-29T17:23:45.759Z,96.16
2023-01-29T17:26:14.544Z,97.18
2023-01-29T17:28:42.427Z,96.85
2023-01-29T17:31:09.206Z,98.14
2023-01-29T17:33:40.381Z,99.48
2023-01-29T17:36:12.180Z,100.00
2023-01-29T17:38:39.756Z,100.00
2023-01-29T17:41:09.145Z,100.00
2023-01-29T17:43:35.683Z,100.00
2023-01-29T17:46:02.322Z,100.00
2023-01-29T17:48:30.208Z,100.00
2023-01-29T17:51:00.834Z,100.00
2023-01-29T17:53:43.291Z,100.00
2023-01-29T17:56:16.944Z,100.00
2023-01-29T17:58:43.926Z,100.00
2023-01-29T18:01:10.738Z,100.00
2023-01-29T18:03:37.629Z,100.00
2023-01-29T18:06:08.208Z,100.00
2023-01-29T18:08:35.743Z,100.00
2023-01-29T18:11:02.736Z,100.00
2023-01-29T18:13:29.721Z,100.00
2023-01-29T18:15:56.270Z,100.00
2023-01-29T18:18:24.253Z,100.00
2023-01-29T18:20:51.144Z,100.00
2023-01-29T18:23:17.795Z,100.00
2023-01-29T18:25:44.779Z,100.00
2023-01-29T18:28:17.796Z,100.00
2023-01-29T18:30:47.244Z,100.00
2023-01-29T18:33:14.648Z,100.00
2023-01-29T18:35:41.476Z,100.00
2023-01-29T18:38:08.000Z,100.00
2023-01-29T18:40:34.599Z,100.00
2023-01-29T18:43:01.164Z,100.00
2023-01-29T18:45:28.778Z,100.00
2023-01-29T18:47:56.176Z,100.00
2023-01-29T18:50:24.838Z,100.00
2023-01-29T18:52:51.471Z,100.00
2023-01-29T18:55:18.205Z,100.00
2023-01-29T18:58:29.054Z,100.00
2023-01-29T19:00:31.477Z,100.00
2023-01-29T19:02:57.972Z,100.00
2023-01-29T19:05:25.571Z,100.00
2023-01-29T19:07:52.361Z,100.00
2023-01-29T19:10:19.070Z,100.00
2023-01-29T19:12:45.671Z,100.00
2023-01-29T19:15:12.338Z,100.00
2023-01-29T19:17:39.249Z,100.00
2023-01-29T19:20:06.361Z,100.00
2023-01-29T19:22:32.971Z,100.00
2023-01-29T19:24:59.470Z,100.00
2023-01-29T19:27:30.229Z,100.00
2023-01-29T19:29:57.784Z,100.00
2023-01-29T19:32:24.408Z,100.00
2023-01-29T19:34:51.628Z,100.00
2023-01-29T19:37:18.065Z,100.00
2023-01-29T19:39:44.683Z,100.00
2023-01-29T19:42:11.371Z,100.00
2023-01-29T19:44:39.737Z,100.00
2023-01-29T19:47:07.419Z,100.00
2023-01-29T19:49:34.193Z,100.00
2023-01-29T19:52:02.230Z,100.00
2023-01-29T19:54:29.537Z,100.00
2023-01-29T19:56:56.490Z,100.00
2023-01-29T19:59:22.944Z,100.00
2023-01-29T20:01:50.173Z,100.00
2023-01-29T20:04:16.756Z,100.00
2023-01-29T20:06:43.266Z,100.00
2023-01-29T20:09:09.986Z,100.00
2023-01-29T20:11:36.785Z,100.00
2023-01-29T20:14:03.476Z,100.00
2023-01-29T20:16:30.203Z,100.00
2023-01-29T20:19:13.189Z,100.00
2023-01-29T20:21:45.367Z,100.00
2023-01-29T20:24:13.484Z,100.00
2023-01-29T20:26:40.299Z,100.00
2023-01-29T20:29:07.454Z,100.00
2023-01-29T20:31:34.148Z,100.00
2023-01-29T20:34:00.608Z,100.00
2023-01-29T20:36:27.214Z,100.00
2023-01-29T20:38:53.732Z,100.00
2023-01-29T20:41:22.310Z,100.00
2023-01-29T20:43:50.741Z,100.00
2023-01-29T20:46:18.532Z,100.00
2023-01-29T20:48:45.200Z,100.00
2023-01-29T20:51:15.398Z,100.00
2023-01-29T20:53:46.171Z,100.00
2023-01-29T20:56:14.600Z,100.00
2023-01-29T20:58:41.883Z,100.00
2023-01-29T21:01:10.635Z,100.00
2023-01-29T21:03:39.093Z,100.00
2023-01-29T21:06:06.534Z,100.00
2023-01-29T21:08:33.457Z,100.00
2023-01-29T21:11:00.381Z,100.00
2023-01-29T21:13:27.532Z,100.00
2023-01-29T21:15:54.332Z,100.00
2023-01-29T21:18:21.203Z,100.00
2023-01-29T21:20:50.724Z,100.00
2023-01-29T21:23:17.478Z,100.00
2023-01-29T21:25:45.726Z,100.00
2023-01-29T21:28:16.019Z,100.00
2023-01-29T21:30:50.318Z,100.00
2023-01-29T21:33:17.490Z,100.00
2023-01-29T21:35:44.203Z,100.00
2023-01-29T21:38:10.734Z,100.00
2023-01-29T21:40:37.676Z,100.00
2023-01-29T21:43:13.226Z,100.00
2023-01-29T21:45:40.931Z,100.00
2023-01-29T21:48:09.385Z,100.00
2023-01-29T21:50:36.941Z,100.00
2023-01-29T21:53:06.758Z,100.00
2023-01-29T21:55:33.441Z,100.00
2023-01-29T21:58:00.714Z,100.00
2023-01-29T22:00:28.307Z,100.00
2023-01-29T22:02:58.574Z,100.00
2023-01-29T22:05:26.471Z,100.00
2023-01-29T22:07:53.225Z,100.00
2023-01-29T22:10:20.696Z,100.00
2023-01-29T22:12:48.616Z,100.00
2023-01-29T22:15:15.974Z,100.00
2023-01-29T22:17:42.523Z,100.00
2023-01-29T22:20:13.689Z,100.00
2023-01-29T22:22:40.335Z,100.00
2023-01-29T22:25:07.664Z,100.00
2023-01-29T22:27:34.627Z,100.00
2023-01-29T22:30:01.326Z,100.00
2023-01-29T22:32:28.191Z,100.00
2023-01-29T22:34:54.805Z,100.00
2023-01-29T22:37:21.971Z,100.00
2023-01-29T22:39:48.702Z,100.00
2023-01-29T22:42:15.728Z,100.00
2023-01-29T22:44:42.900Z,100.00
2023-01-29T22:47:09.462Z,100.00
2023-01-29T22:49:36.307Z,100.00
2023-01-29T22:52:11.922Z,100.00
2023-01-29T22:54:40.652Z,100.00
2023-01-29T22:57:10.336Z,100.00
2023-01-29T22:59:37.186Z,100.00
2023-01-29T23:02:04.220Z,100.00
2023-01-29T23:04:30.855Z,100.00
2023-01-29T23:06:57.347Z,100.00
2023-01-29T23:09:24.265Z,100.00
2023-01-29T23:11:50.984Z,100.00
2023-01-29T23:14:17.682Z,100.00
2023-01-29T23:16:44.396Z,100.00
2023-01-29T23:19:11.945Z,100.00
2023-01-29T23:21:39.816Z,100.00
2023-01-29T23:24:08.016Z,100.00
2023-01-29T23:26:53.459Z,100.00
2023-01-29T23:29:20.467Z,100.00
2023-01-29T23:31:47.020Z,100.00
2023-01-29T23:34:14.354Z,100.00
2023-01-29T23:36:41.691Z,100.00
2023-01-29T23:39:08.413Z,100.00
2023-01-29T23:41:35.272Z,100.00
2023-01-29T23:44:02.365Z,100.00
2023-01-29T23:46:29.211Z,100.00
2023-01-29T23:48:55.873Z,100.00
2023-01-29T23:51:22.618Z,100.00
2023-01-29T23:53:51.751Z,100.00
2023-01-29T23:56:18.225Z,100.00
2023-01-29T23:58:44.975Z,100.00
